Time;durP1;ratioP1;P1;durP2;ratioP2;P2;SDS_P1;SDS_P2;PMS_P1;PMS_P2;Temp;Humidity;BMP_temperature;BMP_pressure;BME280_temperature;BME280_humidity;BME280_pressure;Samples;Min_cycle;Max_cycle;Signal;HPM_P1;HPM_P2
2022/03/14 00:02:01;;;;;;;;;;;;;;;;;;5050258;28;19909;-50
2022/03/14 00:04:26;;;;;;;;;;;;;;;;;;5037898;28;19917;-50
2022/03/14 00:06:52;;;;;;;;;;;;;;;;;;5050275;28;19913;-49
2022/03/14 00:09:17;;;;;;;;;;;;;;;;;;5035782;28;20280;-49
2022/03/14 00:11:43;;;;;;;;;;;;;;;;;;5045100;28;19913;-50
2022/03/14 00:14:09;;;;;;;;;;;;;;;;;;5038259;28;19916;-49
2022/03/14 00:16:39;;;;;;;;;;;;;;;;;;5036042;28;19913;-49
2022/03/14 00:19:05;;;;;;;;;;;;;;;;;;5035620;28;19917;-50
2022/03/14 00:21:34;;;;;;;;;;;;;;;;;;5035655;28;19916;-51
2022/03/14 00:23:59;;;;;;;;;;;;;;;;;;5035503;28;19916;-50
2022/03/14 00:26:26;;;;;;;;;;;;;;;;;;5038111;28;20364;-49
2022/03/14 00:28:51;;;;;;;;;;;;;;;;;;5035041;28;19905;-49
2022/03/14 00:31:16;;;;;;;;;;;;;;;;;;5035535;28;20422;-50
2022/03/14 00:33:41;;;;;;;;;;;;;;;;;;5035383;28;19956;-49
2022/03/14 00:36:06;;;;;;;;;;;;;;;;;;5035595;28;19955;-50
2022/03/14 00:38:32;;;;;;;;;;;;;;;;;;5035570;28;19913;-50
2022/03/14 00:40:59;;;;;;;;;;;;;;;;;;5035230;28;19964;-50
2022/03/14 00:43:24;;;;;;;;;;;;;;;;;;5053108;28;20378;-52
2022/03/14 00:45:49;;;;;;;;;;;;;;;;;;5053917;28;19909;-51
2022/03/14 00:48:14;;;;;;;;;;;;;;;;;;5061919;22;19925;-50
2022/03/14 00:50:39;;;;;;;;;;;;;;;;;;5054519;28;20364;-50
2022/03/14 00:53:04;;;;;;;;;;;;;;;;;;5054894;28;19913;-51
2022/03/14 00:55:30;;;;;;;;;;;;;;;;;;5053831;28;19916;-50
2022/03/14 00:57:55;;;;;;;;;;;;;;;;;;5054736;28;20375;-52
2022/03/14 01:00:20;;;;;;;;;;;;;;;;;;5054946;28;19916;-49
2022/03/14 01:02:48;;;;;;;;;;;;;;;;;;5054875;28;19909;-52
2022/03/14 01:05:13;;;;;;;;;;;;;;;;;;5054837;28;19996;-52
2022/03/14 01:07:38;;;;;;;;;;;;;;;;;;5055000;28;20343;-52
2022/03/14 01:10:03;;;;;;;;;;;;;;;;;;5054761;28;19924;-49
2022/03/14 01:12:29;;;;;;;;;;;;;;;;;;5054675;28;19916;-50
2022/03/14 01:14:55;;;;;;;;;;;;;;;;;;5054865;28;19909;-50
2022/03/14 01:17:21;;;;;;;;;;;;;;;;;;5054542;28;19908;-52
2022/03/14 01:19:46;;;;;;;;;;;;;;;;;;5054281;28;20011;-50
2022/03/14 01:22:11;;;;;;;;;;;;;;;;;;5054536;28;20030;-52
2022/03/14 01:24:38;;;;;;;;;;;;;;;;;;5054043;28;20287;-50
2022/03/14 01:27:03;;;;;;;;;;;;;;;;;;5052846;28;19913;-52
2022/03/14 01:29:28;;;;;;;;;;;;;;;;;;5049237;28;19919;-50
2022/03/14 01:31:54;;;;;;;;;;;;;;;;;;5054352;28;20299;-49
2022/03/14 01:34:20;;;;;;;;;;;;;;;;;;5054408;28;19964;-50
2022/03/14 01:36:45;;;;;;;;;;;;;;;;;;5054457;28;20245;-49
2022/03/14 01:39:10;;;;;;;;;;;;;;;;;;5056255;28;20408;-49
2022/03/14 01:41:35;;;;;;;;;;;;;;;;;;5061135;28;20376;-49
2022/03/14 01:44:01;;;;;;;;;;;;;;;;;;5061110;28;20011;-49
2022/03/14 01:46:26;;;;;;;;;;;;;;;;;;5060993;28;19909;-50
2022/03/14 01:48:52;;;;;;;;;;;;;;;;;;5060918;28;19920;-50
2022/03/14 01:51:17;;;;;;;;;;;;;;;;;;5059394;28;19939;-51
2022/03/14 01:53:43;;;;;;;;;;;;;;;;;;5061040;28;19909;-51
2022/03/14 01:56:08;;;;;;;;;;;;;;;;;;5048548;28;19921;-49
2022/03/14 01:58:33;;;;;;;;;;;;;;;;;;5056215;28;20318;-50
2022/03/14 02:00:58;;;;;;;;;;;;;;;;;;5061024;28;20351;-50
2022/03/14 02:03:23;;;;;;;;;;;;;;;;;;5060842;28;19963;-51
2022/03/14 02:05:48;;;;;;;;;;;;;;;;;;5061005;28;19931;-50
2022/03/14 02:08:14;;;;;;;;;;;;;;;;;;5060923;28;19962;-50
2022/03/14 02:10:39;;;;;;;;;;;;;;;;;;5060818;28;19959;-52
2022/03/14 02:13:04;;;;;;;;;;;;;;;;;;5060858;28;19948;-50
2022/03/14 02:15:29;;;;;;;;;;;;;;;;;;5060716;28;19956;-49
2022/03/14 02:17:54;;;;;;;;;;;;;;;;;;5060877;28;19960;-50
2022/03/14 02:20:19;;;;;;;;;;;;;;;;;;5060363;28;19917;-50
2022/03/14 02:22:44;;;;;;;;;;;;;;;;;;5060752;28;19909;-50
2022/03/14 02:25:10;;;;;;;;;;;;;;;;;;5054333;28;19996;-50
2022/03/14 02:27:35;;;;;;;;;;;;;;;;;;5040650;28;19924;-50
2022/03/14 02:30:02;;;;;;;;;;;;;;;;;;5040627;28;19909;-50
2022/03/14 02:32:27;;;;;;;;;;;;;;;;;;5040544;28;19951;-49
2022/03/14 02:34:53;;;;;;;;;;;;;;;;;;5040518;28;19910;-52
2022/03/14 02:37:18;;;;;;;;;;;;;;;;;;5040598;28;19909;-51
2022/03/14 02:39:43;;;;;;;;;;;;;;;;;;5040574;28;20422;-49
2022/03/14 02:42:08;;;;;;;;;;;;;;;;;;5040711;28;19916;-49
2022/03/14 02:44:34;;;;;;;;;;;;;;;;;;5040600;28;20000;-52
2022/03/14 02:46:59;;;;;;;;;;;;;;;;;;5040571;28;19923;-51
2022/03/14 02:49:24;;;;;;;;;;;;;;;;;;5040375;28;19921;-49
2022/03/14 02:51:51;;;;;;;;;;;;;;;;;;5037453;28;20296;-51
2022/03/14 02:54:16;;;;;;;;;;;;;;;;;;5037222;28;20050;-52
2022/03/14 02:56:41;;;;;;;;;;;;;;;;;;5037802;28;19964;-49
2022/03/14 02:59:06;;;;;;;;;;;;;;;;;;5037302;28;20420;-49
2022/03/14 03:01:32;;;;;;;;;;;;;;;;;;5037546;28;19916;-49
2022/03/14 03:03:57;;;;;;;;;;;;;;;;;;5037733;28;19915;-50
2022/03/14 03:06:22;;;;;;;;;;;;;;;;;;5037382;28;20007;-52
2022/03/14 03:08:48;;;;;;;;;;;;;;;;;;5037303;28;19988;-50
2022/03/14 03:11:14;;;;;;;;;;;;;;;;;;5037054;28;19963;-49
2022/03/14 03:13:41;;;;;;;;;;;;;;;;;;5037046;28;19913;-52
2022/03/14 03:16:07;;;;;;;;;;;;;;;;;;5036876;28;19991;-49
2022/03/14 03:18:32;;;;;;;;;;;;;;;;;;5036979;28;19967;-49
2022/03/14 03:20:57;;;;;;;;;;;;;;;;;;5036907;28;19948;-51
2022/03/14 03:23:22;;;;;;;;;;;;;;;;;;5037906;28;19924;-50
2022/03/14 03:25:47;;;;;;;;;;;;;;;;;;5056301;28;19913;-49
2022/03/14 03:28:12;;;;;;;;;;;;;;;;;;5056594;28;20280;-49
2022/03/14 03:30:38;;;;;;;;;;;;;;;;;;5056539;28;19932;-50
2022/03/14 03:33:03;;;;;;;;;;;;;;;;;;5056673;28;19916;-50
2022/03/14 03:35:29;;;;;;;;;;;;;;;;;;5056570;28;20363;-49
2022/03/14 03:37:54;;;;;;;;;;;;;;;;;;5056478;28;19917;-50
2022/03/14 03:40:19;;;;;;;;;;;;;;;;;;5056602;28;19913;-49
2022/03/14 03:42:44;;;;;;;;;;;;;;;;;;5056313;28;19908;-50
2022/03/14 03:45:09;;;;;;;;;;;;;;;;;;5056310;28;20291;-49
2022/03/14 03:47:34;;;;;;;;;;;;;;;;;;5056297;28;19928;-50
2022/03/14 03:50:00;;;;;;;;;;;;;;;;;;5056286;28;19913;-51
2022/03/14 03:52:25;;;;;;;;;;;;;;;;;;5055426;28;19958;-49
2022/03/14 03:54:50;;;;;;;;;;;;;;;;;;5040193;28;19936;-51
2022/03/14 03:57:15;;;;;;;;;;;;;;;;;;5055377;28;20051;-49
2022/03/14 03:59:40;;;;;;;;;;;;;;;;;;5055860;28;20375;-49
2022/03/14 04:02:08;;;;;;;;;;;;;;;;;;5055271;28;19913;-49
2022/03/14 04:04:35;;;;;;;;;;;;;;;;;;5055402;28;19963;-50
2022/03/14 04:07:01;;;;;;;;;;;;;;;;;;5055977;28;20378;-50
2022/03/14 04:09:27;;;;;;;;;;;;;;;;;;5055989;28;19913;-49
2022/03/14 04:11:52;;;;;;;;;;;;;;;;;;5055916;28;19915;-50
2022/03/14 04:14:17;;;;;;;;;;;;;;;;;;5055694;28;20348;-49
2022/03/14 04:16:42;;;;;;;;;;;;;;;;;;5055988;28;20004;-49
2022/03/14 04:19:07;;;;;;;;;;;;;;;;;;5055977;28;19913;-49
2022/03/14 04:21:36;;;;;;;;;;;;;;;;;;5053982;28;19912;-52
2022/03/14 04:24:04;;;;;;;;;;;;;;;;;;5048974;28;19920;-52
2022/03/14 04:26:29;;;;;;;;;;;;;;;;;;5052919;28;19913;-49
2022/03/14 04:28:54;;;;;;;;;;;;;;;;;;5055505;28;20003;-50
2022/03/14 04:31:21;;;;;;;;;;;;;;;;;;5055426;28;20020;-52
2022/03/14 04:33:46;;;;;;;;;;;;;;;;;;5055322;28;20308;-50
2022/03/14 04:36:13;;;;;;;;;;;;;;;;;;5055564;28;19931;-49
2022/03/14 04:38:38;;;;;;;;;;;;;;;;;;5055190;28;19952;-51
2022/03/14 04:41:03;;;;;;;;;;;;;;;;;;5055089;28;19916;-50
2022/03/14 04:43:29;;;;;;;;;;;;;;;;;;5055196;28;19931;-50
2022/03/14 04:45:54;;;;;;;;;;;;;;;;;;5055245;28;19909;-50
2022/03/14 04:48:19;;;;;;;;;;;;;;;;;;5053645;28;19970;-52
2022/03/14 04:50:45;;;;;;;;;;;;;;;;;;5055104;28;19956;-52
2022/03/14 04:53:10;;;;;;;;;;;;;;;;;;5054415;28;20006;-51
2022/03/14 04:55:35;;;;;;;;;;;;;;;;;;5054981;28;19915;-49
2022/03/14 04:58:00;;;;;;;;;;;;;;;;;;5052074;28;20003;-50
2022/03/14 05:00:26;;;;;;;;;;;;;;;;;;5054951;28;20004;-51
2022/03/14 05:02:52;;;;;;;;;;;;;;;;;;5054897;28;20280;-51
2022/03/14 05:05:17;;;;;;;;;;;;;;;;;;5054966;28;19908;-49
2022/03/14 05:07:42;;;;;;;;;;;;;;;;;;5053773;28;19913;-50
2022/03/14 05:10:07;;;;;;;;;;;;;;;;;;5054913;28;20331;-49
2022/03/14 05:12:32;;;;;;;;;;;;;;;;;;5054867;28;19911;-50
2022/03/14 05:14:57;;;;;;;;;;;;;;;;;;5053197;28;19908;-49
2022/03/14 05:17:24;;;;;;;;;;;;;;;;;;5054792;28;19916;-49
2022/03/14 05:19:50;;;;;;;;;;;;;;;;;;5054665;28;19916;-49
2022/03/14 05:22:15;;;;;;;;;;;;;;;;;;5045855;28;19928;-49
2022/03/14 05:24:40;;;;;;;;;;;;;;;;;;5054255;28;20268;-49
2022/03/14 05:27:06;;;;;;;;;;;;;;;;;;5054435;28;19909;-49
2022/03/14 05:29:31;;;;;;;;;;;;;;;;;;5034553;28;19909;-51
2022/03/14 05:31:57;;;;;;;;;;;;;;;;;;5034676;28;20268;-50
2022/03/14 05:34:22;;;;;;;;;;;;;;;;;;5034757;28;19909;-50
2022/03/14 05:36:47;;;;;;;;;;;;;;;;;;5034599;28;19909;-49
2022/03/14 05:39:12;;;;;;;;;;;;;;;;;;5034325;28;19913;-49
2022/03/14 05:41:37;;;;;;;;;;;;;;;;;;5034857;28;19909;-52
2022/03/14 05:44:02;;;;;;;;;;;;;;;;;;5034501;28;19963;-49
2022/03/14 05:46:28;;;;;;;;;;;;;;;;;;5034638;28;19909;-50
2022/03/14 05:48:53;;;;;;;;;;;;;;;;;;5034467;28;19921;-50
2022/03/14 05:51:18;;;;;;;;;;;;;;;;;;5036593;28;19913;-52
2022/03/14 05:53:43;;;;;;;;;;;;;;;;;;5042765;28;19912;-50
2022/03/14 05:56:08;;;;;;;;;;;;;;;;;;5053171;28;19916;-50
2022/03/14 05:58:33;;;;;;;;;;;;;;;;;;5054111;28;19912;-51
2022/03/14 06:00:58;;;;;;;;;;;;;;;;;;5053875;28;19917;-50
2022/03/14 06:03:24;;;;;;;;;;;;;;;;;;5054226;28;19959;-50
2022/03/14 06:05:49;;;;;;;;;;;;;;;;;;5054215;28;19913;-50
2022/03/14 06:08:14;;;;;;;;;;;;;;;;;;5054161;28;20360;-52
2022/03/14 06:10:39;;;;;;;;;;;;;;;;;;5054063;28;20283;-49
2022/03/14 06:13:04;;;;;;;;;;;;;;;;;;5054069;28;20323;-50
2022/03/14 06:15:30;;;;;;;;;;;;;;;;;;5054077;28;19958;-49
2022/03/14 06:17:55;;;;;;;;;;;;;;;;;;5054059;28;19990;-52
2022/03/14 06:20:20;;;;;;;;;;;;;;;;;;5053909;28;20368;-50
2022/03/14 06:22:48;;;;;;;;;;;;;;;;;;5047413;28;19913;-52
2022/03/14 06:25:13;;;;;;;;;;;;;;;;;;5051895;28;19913;-51
2022/03/14 06:27:38;;;;;;;;;;;;;;;;;;5051346;28;20272;-51
2022/03/14 06:30:04;;;;;;;;;;;;;;;;;;5054166;28;19912;-51
2022/03/14 06:32:29;;;;;;;;;;;;;;;;;;5054424;28;20015;-48
2022/03/14 06:34:54;;;;;;;;;;;;;;;;;;5050543;28;19909;-54
2022/03/14 06:37:19;;;;;;;;;;;;;;;;;;5051244;28;20390;-51
2022/03/14 06:39:44;;;;;;;;;;;;;;;;;;5054006;28;20390;-51
2022/03/14 06:42:09;;;;;;;;;;;;;;;;;;5053390;28;19920;-54
2022/03/14 06:44:38;;;;;;;;;;;;;;;;;;5050514;28;19924;-54
2022/03/14 06:47:03;;;;;;;;;;;;;;;;;;5047706;28;19912;-54
2022/03/14 06:49:29;;;;;;;;;;;;;;;;;;5047870;28;19929;-51
2022/03/14 06:51:54;;;;;;;;;;;;;;;;;;5046877;28;19920;-53
2022/03/14 06:54:19;;;;;;;;;;;;;;;;;;5037031;28;19927;-51
2022/03/14 06:56:44;;;;;;;;;;;;;;;;;;5039036;28;19912;-51
2022/03/14 06:59:09;;;;;;;;;;;;;;;;;;5031938;28;19924;-52
2022/03/14 07:01:35;;;;;;;;;;;;;;;;;;5028310;28;19920;-52
2022/03/14 07:04:01;;;;;;;;;;;;;;;;;;5019868;28;20322;-51
2022/03/14 07:06:26;;;;;;;;;;;;;;;;;;5030156;28;19917;-53
2022/03/14 07:08:51;;;;;;;;;;;;;;;;;;5020854;28;19928;-54
2022/03/14 07:11:16;;;;;;;;;;;;;;;;;;5012989;28;20418;-51
2022/03/14 07:13:42;;;;;;;;;;;;;;;;;;4995607;28;20008;-51
2022/03/14 07:16:07;;;;;;;;;;;;;;;;;;4985557;28;20436;-51
2022/03/14 07:18:34;;;;;;;;;;;;;;;;;;4944019;28;19925;-51
2022/03/14 07:20:59;;;;;;;;;;;;;;;;;;4843425;28;21227;-52
2022/03/14 07:23:24;;;;;;;;;;;;;;;;;;4851852;28;20561;-53
2022/03/14 07:25:50;;;;;;;;;;;;;;;;;;4785123;28;20523;-52
2022/03/14 07:28:15;;;;;;;;;;;;;;;;;;4712481;28;21177;-54
2022/03/14 07:30:40;;;;;;;;;;;;;;;;;;4672170;28;21367;-53
2022/03/14 07:33:05;;;;;;;;;;;;;;;;;;4713259;28;20054;-52
2022/03/14 07:35:31;;;;;;;;;;;;;;;;;;4829735;28;19925;-53
2022/03/14 07:37:56;;;;;;;;;;;;;;;;;;4887671;28;19931;-54
2022/03/14 07:40:21;;;;;;;;;;;;;;;;;;4917250;28;23159;-53
2022/03/14 07:42:46;;;;;;;;;;;;;;;;;;4920408;28;21049;-56
2022/03/14 07:45:12;;;;;;;;;;;;;;;;;;4907107;28;21126;-53
2022/03/14 07:47:37;;;;;;;;;;;;;;;;;;4934183;28;20986;-55
2022/03/14 07:50:02;;;;;;;;;;;;;;;;;;4839186;28;19931;-54
2022/03/14 07:52:27;;;;;;;;;;;;;;;;;;4884764;28;19928;-53
2022/03/14 07:54:52;;;;;;;;;;;;;;;;;;4870048;28;19921;-54
2022/03/14 07:57:17;;;;;;;;;;;;;;;;;;4898461;28;19920;-53
2022/03/14 07:59:46;;;;;;;;;;;;;;;;;;4858332;28;20612;-55
2022/03/14 08:02:11;;;;;;;;;;;;;;;;;;4856927;28;19927;-52
2022/03/14 08:04:39;;;;;;;;;;;;;;;;;;4868979;28;21341;-54
2022/03/14 08:07:04;;;;;;;;;;;;;;;;;;4829791;28;21989;-52
2022/03/14 08:09:29;;;;;;;;;;;;;;;;;;4811638;28;21528;-55
2022/03/14 08:11:56;;;;;;;;;;;;;;;;;;4772477;28;19927;-54
2022/03/14 08:14:21;;;;;;;;;;;;;;;;;;4725438;28;20133;-54
2022/03/14 08:16:46;;;;;;;;;;;;;;;;;;4608668;28;20813;-50
2022/03/14 08:19:13;;;;;;;;;;;;;;;;;;4628055;28;19954;-55
2022/03/14 08:21:39;;;;;;;;;;;;;;;;;;4471761;28;20443;-54
2022/03/14 08:24:04;;;;;;;;;;;;;;;;;;4571086;28;19921;-55
2022/03/14 08:26:29;;;;;;;;;;;;;;;;;;4742473;28;19955;-55
2022/03/14 08:28:54;;;;;;;;;;;;;;;;;;4764568;28;20028;-54
2022/03/14 08:31:22;;;;;;;;;;;;;;;;;;4767301;28;19928;-53
2022/03/14 08:33:47;;;;;;;;;;;;;;;;;;4783436;28;19921;-53
2022/03/14 08:36:12;;;;;;;;;;;;;;;;;;4767996;28;19920;-53
2022/03/14 08:38:37;;;;;;;;;;;;;;;;;;4768968;28;19925;-54
2022/03/14 08:41:02;;;;;;;;;;;;;;;;;;4750915;28;20021;-55
2022/03/14 08:43:27;;;;;;;;;;;;;;;;;;4752975;28;19921;-58
2022/03/14 08:45:53;;;;;;;;;;;;;;;;;;4749848;28;21029;-55
2022/03/14 08:48:18;;;;;;;;;;;;;;;;;;4743777;28;20733;-57
2022/03/14 08:50:43;;;;;;;;;;;;;;;;;;4744228;28;20063;-55
2022/03/14 08:53:08;;;;;;;;;;;;;;;;;;4740065;28;20747;-55
2022/03/14 08:55:34;;;;;;;;;;;;;;;;;;4753864;28;20014;-52
2022/03/14 08:57:59;;;;;;;;;;;;;;;;;;4749221;28;19928;-58
2022/03/14 09:00:24;;;;;;;;;;;;;;;;;;4762110;28;19925;-54
2022/03/14 09:02:49;;;;;;;;;;;;;;;;;;4766943;28;19928;-53
2022/03/14 09:05:14;;;;;;;;;;;;;;;;;;4750028;28;19920;-53
2022/03/14 09:07:40;;;;;;;;;;;;;;;;;;4745030;28;19927;-56
2022/03/14 09:10:05;;;;;;;;;;;;;;;;;;4770114;28;20044;-54
2022/03/14 09:12:32;;;;;;;;;;;;;;;;;;4739569;28;21829;-55
2022/03/14 09:14:58;;;;;;;;;;;;;;;;;;4750553;28;20051;-55
2022/03/14 09:17:27;;;;;;;;;;;;;;;;;;4762710;28;22043;-52
2022/03/14 09:19:52;;;;;;;;;;;;;;;;;;4770310;28;19990;-56
2022/03/14 09:22:18;;;;;;;;;;;;;;;;;;4762355;28;19933;-55
2022/03/14 09:24:45;;;;;;;;;;;;;;;;;;4745810;28;19920;-52
2022/03/14 09:27:11;;;;;;;;;;;;;;;;;;4748728;28;21238;-54
2022/03/14 09:29:36;;;;;;;;;;;;;;;;;;4737272;28;19925;-54
2022/03/14 09:32:01;;;;;;;;;;;;;;;;;;4734231;28;19921;-54
2022/03/14 09:34:27;;;;;;;;;;;;;;;;;;4736996;28;19928;-57
2022/03/14 09:36:55;;;;;;;;;;;;;;;;;;4758865;28;19963;-53
2022/03/14 09:39:20;;;;;;;;;;;;;;;;;;4764924;28;19929;-57
2022/03/14 09:41:48;;;;;;;;;;;;;;;;;;4754151;28;19928;-54
2022/03/14 09:44:15;;;;;;;;;;;;;;;;;;4772193;28;20055;-56
2022/03/14 09:46:40;;;;;;;;;;;;;;;;;;4761179;28;19928;-54
2022/03/14 09:49:05;;;;;;;;;;;;;;;;;;4772774;28;20055;-53
2022/03/14 09:51:30;;;;;;;;;;;;;;;;;;4751216;28;19928;-57
2022/03/14 09:53:55;;;;;;;;;;;;;;;;;;4742715;28;19972;-54
2022/03/14 09:56:20;;;;;;;;;;;;;;;;;;4739850;28;19927;-59
2022/03/14 09:58:45;;;;;;;;;;;;;;;;;;4744621;28;20059;-58
2022/03/14 10:01:11;;;;;;;;;;;;;;;;;;4737514;28;19921;-54
2022/03/14 10:03:36;;;;;;;;;;;;;;;;;;4745904;28;23731;-57
2022/03/14 10:06:01;;;;;;;;;;;;;;;;;;4753708;28;19921;-54
2022/03/14 10:08:26;;;;;;;;;;;;;;;;;;4749240;28;19921;-56
2022/03/14 10:10:51;;;;;;;;;;;;;;;;;;4737766;28;20015;-52
2022/03/14 10:13:16;;;;;;;;;;;;;;;;;;4731628;28;19921;-54
2022/03/14 10:15:42;;;;;;;;;;;;;;;;;;4734095;28;19921;-55
2022/03/14 10:18:08;;;;;;;;;;;;;;;;;;4730809;28;19931;-56
2022/03/14 10:20:33;;;;;;;;;;;;;;;;;;4753344;28;23584;-54
2022/03/14 10:22:59;;;;;;;;;;;;;;;;;;4736607;28;19925;-56
2022/03/14 10:25:24;;;;;;;;;;;;;;;;;;4746864;28;19921;-55
2022/03/14 10:27:49;;;;;;;;;;;;;;;;;;4770740;28;19927;-56
2022/03/14 10:30:15;;;;;;;;;;;;;;;;;;4722133;28;21071;-52
2022/03/14 10:32:41;;;;;;;;;;;;;;;;;;4742085;28;21819;-56
2022/03/14 10:35:06;;;;;;;;;;;;;;;;;;4724130;28;20660;-54
2022/03/14 10:37:31;;;;;;;;;;;;;;;;;;4726012;28;20890;-56
2022/03/14 10:39:57;;;;;;;;;;;;;;;;;;4724844;28;20003;-55
2022/03/14 10:42:22;;;;;;;;;;;;;;;;;;4739452;28;20414;-57
2022/03/14 10:44:47;;;;;;;;;;;;;;;;;;4741063;28;22487;-54
2022/03/14 10:47:13;;;;;;;;;;;;;;;;;;4732427;28;19921;-55
2022/03/14 10:49:38;;;;;;;;;;;;;;;;;;4703882;28;20048;-55
2022/03/14 10:52:03;;;;;;;;;;;;;;;;;;4700461;28;23304;-53
2022/03/14 10:54:29;;;;;;;;;;;;;;;;;;4700937;28;19943;-56
2022/03/14 10:56:54;;;;;;;;;;;;;;;;;;4734770;28;20110;-58
2022/03/14 10:59:19;;;;;;;;;;;;;;;;;;4757346;28;19925;-54
2022/03/14 11:01:44;;;;;;;;;;;;;;;;;;4754608;28;19921;-55
2022/03/14 11:04:09;;;;;;;;;;;;;;;;;;4740823;28;20608;-54
2022/03/14 11:06:34;;;;;;;;;;;;;;;;;;4723147;28;20109;-54
2022/03/14 11:08:59;;;;;;;;;;;;;;;;;;4682585;28;22493;-55
2022/03/14 11:11:25;;;;;;;;;;;;;;;;;;4523853;28;21656;-56
2022/03/14 11:13:50;;;;;;;;;;;;;;;;;;4525844;28;22952;-55
2022/03/14 11:16:15;;;;;;;;;;;;;;;;;;4563428;28;20180;-54
2022/03/14 11:18:40;;;;;;;;;;;;;;;;;;4441755;28;19949;-54
2022/03/14 11:21:06;;;;;;;;;;;;;;;;;;4500637;28;21035;-53
2022/03/14 11:23:31;;;;;;;;;;;;;;;;;;4612708;28;20579;-53
2022/03/14 11:25:56;;;;;;;;;;;;;;;;;;4642691;28;21277;-56
2022/03/14 11:28:22;;;;;;;;;;;;;;;;;;4605970;28;21728;-53
2022/03/14 11:30:48;;;;;;;;;;;;;;;;;;4593820;28;21978;-53
2022/03/14 11:33:14;;;;;;;;;;;;;;;;;;4599525;28;21920;-54
2022/03/14 11:35:39;;;;;;;;;;;;;;;;;;4560876;28;22182;-55
2022/03/14 11:38:04;;;;;;;;;;;;;;;;;;4518898;28;21251;-54
2022/03/14 11:40:29;;;;;;;;;;;;;;;;;;4488063;28;20059;-56
2022/03/14 11:42:54;;;;;;;;;;;;;;;;;;4556754;28;21522;-54
2022/03/14 11:45:20;;;;;;;;;;;;;;;;;;4598564;28;20576;-54
2022/03/14 11:47:45;;;;;;;;;;;;;;;;;;4633763;28;20181;-52
2022/03/14 11:50:10;;;;;;;;;;;;;;;;;;4665949;28;20519;-54
2022/03/14 11:52:35;;;;;;;;;;;;;;;;;;4654666;28;22893;-55
2022/03/14 11:55:02;;;;;;;;;;;;;;;;;;4622231;28;21249;-54
2022/03/14 11:57:27;;;;;;;;;;;;;;;;;;4707996;28;19952;-53
2022/03/14 11:59:52;;;;;;;;;;;;;;;;;;4752151;28;19928;-57
2022/03/14 12:02:17;;;;;;;;;;;;;;;;;;4781905;28;20234;-54
2022/03/14 12:04:42;;;;;;;;;;;;;;;;;;4772874;28;19924;-54
2022/03/14 12:07:08;;;;;;;;;;;;;;;;;;4834971;28;20148;-53
2022/03/14 12:09:37;;;;;;;;;;;;;;;;;;4844653;28;21110;-53
2022/03/14 12:12:02;;;;;;;;;;;;;;;;;;4832911;28;20365;-56
2022/03/14 12:14:27;;;;;;;;;;;;;;;;;;4814589;28;20271;-55
2022/03/14 12:16:53;;;;;;;;;;;;;;;;;;4793804;28;19921;-55
2022/03/14 12:19:18;;;;;;;;;;;;;;;;;;4831109;28;20397;-53
2022/03/14 12:21:44;;;;;;;;;;;;;;;;;;4833725;28;20002;-55
2022/03/14 12:24:09;;;;;;;;;;;;;;;;;;4810684;28;20459;-53
2022/03/14 12:26:34;;;;;;;;;;;;;;;;;;4805689;28;26554;-53
2022/03/14 12:28:59;;;;;;;;;;;;;;;;;;4753858;28;20063;-52
2022/03/14 12:31:24;;;;;;;;;;;;;;;;;;4615965;28;20823;-56
2022/03/14 12:33:49;;;;;;;;;;;;;;;;;;4558491;28;21634;-56
2022/03/14 12:36:15;;;;;;;;;;;;;;;;;;4602304;28;21912;-53
2022/03/14 12:38:40;;;;;;;;;;;;;;;;;;4664522;28;19929;-54
2022/03/14 12:41:05;;;;;;;;;;;;;;;;;;4720530;28;21682;-56
2022/03/14 12:43:30;;;;;;;;;;;;;;;;;;4721110;28;22220;-54
2022/03/14 12:45:55;;;;;;;;;;;;;;;;;;4746154;28;20544;-55
2022/03/14 12:48:21;;;;;;;;;;;;;;;;;;4736394;22;20593;-56
2022/03/14 12:50:46;;;;;;;;;;;;;;;;;;4719367;28;22276;-53
2022/03/14 12:53:11;;;;;;;;;;;;;;;;;;4720478;28;19978;-53
2022/03/14 12:55:37;;;;;;;;;;;;;;;;;;4732199;28;19963;-53
2022/03/14 12:58:02;;;;;;;;;;;;;;;;;;4758309;28;20438;-56
2022/03/14 13:00:27;;;;;;;;;;;;;;;;;;4753044;28;21920;-53
2022/03/14 13:02:52;;;;;;;;;;;;;;;;;;4693313;28;21246;-57
2022/03/14 13:05:18;;;;;;;;;;;;;;;;;;4715187;28;19920;-52
2022/03/14 13:07:43;;;;;;;;;;;;;;;;;;4744549;28;19935;-54
2022/03/14 13:10:08;;;;;;;;;;;;;;;;;;4713791;28;20554;-52
2022/03/14 13:12:33;;;;;;;;;;;;;;;;;;4715235;28;20419;-54
2022/03/14 13:14:58;;;;;;;;;;;;;;;;;;4730217;28;21116;-54
2022/03/14 13:17:23;;;;;;;;;;;;;;;;;;4722859;28;20435;-54
2022/03/14 13:19:49;;;;;;;;;;;;;;;;;;4673035;28;22361;-55
2022/03/14 13:22:14;;;;;;;;;;;;;;;;;;4609837;28;20057;-53
2022/03/14 13:24:39;;;;;;;;;;;;;;;;;;4631123;28;19928;-52
2022/03/14 13:27:04;;;;;;;;;;;;;;;;;;4730459;28;20341;-53
2022/03/14 13:29:29;;;;;;;;;;;;;;;;;;4769992;28;21578;-54
2022/03/14 13:31:55;;;;;;;;;;;;;;;;;;4792863;28;20006;-52
2022/03/14 13:34:20;;;;;;;;;;;;;;;;;;4832806;28;20957;-56
2022/03/14 13:36:51;;;;;;;;;;;;;;;;;;4842612;28;20131;-55
2022/03/14 13:39:17;;;;;;;;;;;;;;;;;;4835877;28;21107;-52
2022/03/14 13:41:45;;;;;;;;;;;;;;;;;;4847268;28;20004;-53
2022/03/14 13:44:11;;;;;;;;;;;;;;;;;;4845671;28;20067;-52
2022/03/14 13:46:36;;;;;;;;;;;;;;;;;;4848904;28;20620;-52
2022/03/14 13:49:01;;;;;;;;;;;;;;;;;;4832752;28;20900;-53
2022/03/14 13:51:26;;;;;;;;;;;;;;;;;;4826996;28;20655;-54
2022/03/14 13:53:51;;;;;;;;;;;;;;;;;;4817131;28;21107;-54
2022/03/14 13:56:16;;;;;;;;;;;;;;;;;;4820180;28;20599;-53
2022/03/14 13:58:41;;;;;;;;;;;;;;;;;;4811433;28;20652;-56
2022/03/14 14:01:07;;;;;;;;;;;;;;;;;;4823798;28;20046;-55
2022/03/14 14:03:34;;;;;;;;;;;;;;;;;;4787152;28;19975;-55
2022/03/14 14:06:00;;;;;;;;;;;;;;;;;;4796724;28;19921;-54
2022/03/14 14:08:25;;;;;;;;;;;;;;;;;;4821378;28;19917;-56
2022/03/14 14:10:50;;;;;;;;;;;;;;;;;;4783152;28;22482;-55
2022/03/14 14:13:15;;;;;;;;;;;;;;;;;;4717403;28;19963;-56
2022/03/14 14:15:40;;;;;;;;;;;;;;;;;;4747154;28;19921;-53
2022/03/14 14:18:05;;;;;;;;;;;;;;;;;;4814836;28;20202;-50
2022/03/14 14:20:31;;;;;;;;;;;;;;;;;;4912604;28;21230;-54
2022/03/14 14:22:57;;;;;;;;;;;;;;;;;;4923332;28;19921;-53
2022/03/14 14:25:22;;;;;;;;;;;;;;;;;;4919733;28;19921;-53
2022/03/14 14:27:47;;;;;;;;;;;;;;;;;;4908652;28;22828;-55
2022/03/14 14:30:12;;;;;;;;;;;;;;;;;;4931430;28;19922;-53
2022/03/14 14:32:37;;;;;;;;;;;;;;;;;;4923484;28;19921;-55
2022/03/14 14:35:03;;;;;;;;;;;;;;;;;;4933358;28;21008;-53
2022/03/14 14:37:28;;;;;;;;;;;;;;;;;;4927804;28;19928;-54
2022/03/14 14:39:53;;;;;;;;;;;;;;;;;;4950279;28;19978;-54
2022/03/14 14:42:18;;;;;;;;;;;;;;;;;;4954950;28;19921;-54
2022/03/14 14:44:43;;;;;;;;;;;;;;;;;;4939545;28;21960;-54
2022/03/14 14:47:11;;;;;;;;;;;;;;;;;;4938291;28;19960;-57
2022/03/14 14:49:36;;;;;;;;;;;;;;;;;;4948590;28;19933;-54
2022/03/14 14:52:01;;;;;;;;;;;;;;;;;;4942714;28;19976;-52
2022/03/14 14:54:27;;;;;;;;;;;;;;;;;;4949986;28;20055;-54
2022/03/14 14:56:52;;;;;;;;;;;;;;;;;;4935637;28;20599;-55
2022/03/14 14:59:17;;;;;;;;;;;;;;;;;;4896051;28;22174;-56
2022/03/14 15:01:42;;;;;;;;;;;;;;;;;;4839710;28;19921;-55
2022/03/14 15:04:08;;;;;;;;;;;;;;;;;;4864479;28;22022;-55
2022/03/14 15:06:35;;;;;;;;;;;;;;;;;;4864210;28;20015;-52
2022/03/14 15:09:00;;;;;;;;;;;;;;;;;;4922187;28;22994;-54
2022/03/14 15:11:26;;;;;;;;;;;;;;;;;;4950580;28;20067;-54
2022/03/14 15:13:51;;;;;;;;;;;;;;;;;;4947678;28;20004;-55
2022/03/14 15:16:16;;;;;;;;;;;;;;;;;;4928097;28;19962;-54
2022/03/14 15:18:41;;;;;;;;;;;;;;;;;;4938640;28;19933;-55
2022/03/14 15:21:06;;;;;;;;;;;;;;;;;;4925174;28;19922;-55
2022/03/14 15:23:32;;;;;;;;;;;;;;;;;;4923840;28;19922;-53
2022/03/14 15:25:57;;;;;;;;;;;;;;;;;;4945081;28;19921;-55
2022/03/14 15:28:22;;;;;;;;;;;;;;;;;;4944990;28;21903;-56
2022/03/14 15:30:48;;;;;;;;;;;;;;;;;;4934857;28;19922;-53
2022/03/14 15:33:13;;;;;;;;;;;;;;;;;;4947529;28;20668;-56
2022/03/14 15:35:39;;;;;;;;;;;;;;;;;;4952516;28;19964;-54
2022/03/14 15:38:05;;;;;;;;;;;;;;;;;;4952082;28;20778;-55
2022/03/14 15:40:30;;;;;;;;;;;;;;;;;;4951322;28;19929;-53
2022/03/14 15:42:55;;;;;;;;;;;;;;;;;;4948844;28;19953;-55
2022/03/14 15:45:22;;;;;;;;;;;;;;;;;;4958908;28;19921;-54
2022/03/14 15:47:47;;;;;;;;;;;;;;;;;;4947996;28;19921;-55
2022/03/14 15:50:13;;;;;;;;;;;;;;;;;;4953076;28;20727;-53
2022/03/14 15:52:38;;;;;;;;;;;;;;;;;;4936357;28;20334;-52
2022/03/14 15:55:05;;;;;;;;;;;;;;;;;;4940833;28;19921;-51
2022/03/14 15:57:30;;;;;;;;;;;;;;;;;;4954251;28;19922;-53
2022/03/14 15:59:55;;;;;;;;;;;;;;;;;;4963242;28;19991;-55
2022/03/14 16:02:20;;;;;;;;;;;;;;;;;;4970888;28;19929;-53
2022/03/14 16:04:46;;;;;;;;;;;;;;;;;;4980350;28;19921;-52
2022/03/14 16:07:11;;;;;;;;;;;;;;;;;;4990118;28;19957;-54
2022/03/14 16:09:36;;;;;;;;;;;;;;;;;;4981476;28;19922;-55
2022/03/14 16:12:01;;;;;;;;;;;;;;;;;;4990273;28;19914;-52
2022/03/14 16:14:26;;;;;;;;;;;;;;;;;;4985814;28;19914;-55
2022/03/14 16:16:51;;;;;;;;;;;;;;;;;;4991966;28;19993;-52
2022/03/14 16:19:17;;;;;;;;;;;;;;;;;;4991165;28;19981;-52
2022/03/14 16:21:42;;;;;;;;;;;;;;;;;;4990411;28;19937;-52
2022/03/14 16:24:09;;;;;;;;;;;;;;;;;;4986450;28;19918;-53
2022/03/14 16:26:35;;;;;;;;;;;;;;;;;;4995679;28;19918;-54
2022/03/14 16:29:00;;;;;;;;;;;;;;;;;;4995867;28;19917;-55
2022/03/14 16:31:25;;;;;;;;;;;;;;;;;;4995036;28;20391;-54
2022/03/14 16:33:50;;;;;;;;;;;;;;;;;;4996209;28;19918;-54